sensor_id;sensor_type;location;lat;lon;timestamp;P1;durP1;ratioP1;P2;durP2;ratioP2
38182;SDS011;23991;52.430;10.586;2023-06-24T00:01:27;10.48;;;6.72;;
38182;SDS011;23991;52.430;10.586;2023-06-24T00:03:55;8.70;;;6.18;;
38182;SDS011;23991;52.430;10.586;2023-06-24T00:06:21;10.98;;;6.50;;
38182;SDS011;23991;52.430;10.586;2023-06-24T00:08:51;7.43;;;6.00;;
38182;SDS011;23991;52.430;10.586;2023-06-24T00:11:19;10.25;;;6.30;;
38182;SDS011;23991;52.430;10.586;2023-06-24T00:13:44;11.35;;;6.55;;
38182;SDS011;23991;52.430;10.586;2023-06-24T00:16:10;9.32;;;6.82;;
38182;SDS011;23991;52.430;10.586;2023-06-24T00:18:36;11.43;;;6.88;;
38182;SDS011;23991;52.430;10.586;2023-06-24T00:21:05;9.52;;;6.20;;
38182;SDS011;23991;52.430;10.586;2023-06-24T00:23:31;8.98;;;6.55;;
38182;SDS011;23991;52.430;10.586;2023-06-24T00:26:00;9.82;;;6.85;;
38182;SDS011;23991;52.430;10.586;2023-06-24T00:28:26;11.55;;;6.88;;
38182;SDS011;23991;52.430;10.586;2023-06-24T00:30:52;10.88;;;7.05;;
38182;SDS011;23991;52.430;10.586;2023-06-24T00:33:18;10.15;;;6.72;;
38182;SDS011;23991;52.430;10.586;2023-06-24T00:35:46;11.38;;;7.05;;
38182;SDS011;23991;52.430;10.586;2023-06-24T00:38:12;8.77;;;6.28;;
38182;SDS011;23991;52.430;10.586;2023-06-24T00:40:38;22.38;;;7.78;;
38182;SDS011;23991;52.430;10.586;2023-06-24T00:43:04;30.88;;;9.15;;
38182;SDS011;23991;52.430;10.586;2023-06-24T00:45:30;16.33;;;6.90;;
38182;SDS011;23991;52.430;10.586;2023-06-24T00:47:59;35.92;;;8.45;;
38182;SDS011;23991;52.430;10.586;2023-06-24T00:50:26;18.92;;;7.82;;
38182;SDS011;23991;52.430;10.586;2023-06-24T00:52:52;16.30;;;6.47;;
38182;SDS011;23991;52.430;10.586;2023-06-24T00:55:18;12.82;;;6.88;;
38182;SDS011;23991;52.430;10.586;2023-06-24T00:57:46;31.20;;;8.90;;
38182;SDS011;23991;52.430;10.586;2023-06-24T01:00:17;27.38;;;7.50;;
38182;SDS011;23991;52.430;10.586;2023-06-24T01:02:43;11.68;;;7.22;;
38182;SDS011;23991;52.430;10.586;2023-06-24T01:05:12;9.32;;;6.70;;
38182;SDS011;23991;52.430;10.586;2023-06-24T01:07:38;11.93;;;7.65;;
38182;SDS011;23991;52.430;10.586;2023-06-24T01:10:05;15.52;;;6.90;;
38182;SDS011;23991;52.430;10.586;2023-06-24T01:12:35;10.93;;;7.10;;
38182;SDS011;23991;52.430;10.586;2023-06-24T01:15:04;10.87;;;7.20;;
38182;SDS011;23991;52.430;10.586;2023-06-24T01:17:54;9.63;;;6.47;;
38182;SDS011;23991;52.430;10.586;2023-06-24T01:23:11;12.98;;;7.35;;
38182;SDS011;23991;52.430;10.586;2023-06-24T01:34:43;13.48;;;7.35;;
38182;SDS011;23991;52.430;10.586;2023-06-24T01:37:21;15.00;;;6.93;;
38182;SDS011;23991;52.430;10.586;2023-06-24T01:40:20;14.85;;;6.88;;
38182;SDS011;23991;52.430;10.586;2023-06-24T01:42:52;13.25;;;7.15;;
38182;SDS011;23991;52.430;10.586;2023-06-24T01:45:22;11.45;;;7.65;;
38182;SDS011;23991;52.430;10.586;2023-06-24T01:47:54;14.32;;;6.75;;
38182;SDS011;23991;52.430;10.586;2023-06-24T01:50:55;13.15;;;7.43;;
38182;SDS011;23991;52.430;10.586;2023-06-24T01:53:34;11.00;;;7.65;;
38182;SDS011;23991;52.430;10.586;2023-06-24T01:56:05;9.48;;;7.18;;
38182;SDS011;23991;52.430;10.586;2023-06-24T01:58:33;11.32;;;6.75;;
38182;SDS011;23991;52.430;10.586;2023-06-24T02:01:01;11.30;;;6.90;;
38182;SDS011;23991;52.430;10.586;2023-06-24T02:03:27;11.05;;;7.28;;
38182;SDS011;23991;52.430;10.586;2023-06-24T02:05:53;10.43;;;7.85;;
38182;SDS011;23991;52.430;10.586;2023-06-24T02:08:21;9.90;;;7.57;;
38182;SDS011;23991;52.430;10.586;2023-06-24T02:10:48;8.60;;;6.70;;
38182;SDS011;23991;52.430;10.586;2023-06-24T02:13:16;11.85;;;7.72;;
38182;SDS011;23991;52.430;10.586;2023-06-24T02:15:43;14.25;;;7.97;;
38182;SDS011;23991;52.430;10.586;2023-06-24T02:18:13;15.35;;;7.53;;
38182;SDS011;23991;52.430;10.586;2023-06-24T02:20:42;12.90;;;7.97;;
38182;SDS011;23991;52.430;10.586;2023-06-24T02:23:09;12.20;;;7.75;;
38182;SDS011;23991;52.430;10.586;2023-06-24T02:25:36;11.88;;;7.55;;
38182;SDS011;23991;52.430;10.586;2023-06-24T02:28:04;10.70;;;7.22;;
38182;SDS011;23991;52.430;10.586;2023-06-24T02:30:37;18.42;;;8.00;;
38182;SDS011;23991;52.430;10.586;2023-06-24T02:33:07;13.07;;;7.75;;
38182;SDS011;23991;52.430;10.586;2023-06-24T02:35:37;11.75;;;7.78;;
38182;SDS011;23991;52.430;10.586;2023-06-24T02:38:03;10.50;;;7.60;;
38182;SDS011;23991;52.430;10.586;2023-06-24T02:40:32;10.32;;;7.57;;
38182;SDS011;23991;52.430;10.586;2023-06-24T02:42:59;10.93;;;8.20;;
38182;SDS011;23991;52.430;10.586;2023-06-24T02:45:24;9.13;;;7.20;;
38182;SDS011;23991;52.430;10.586;2023-06-24T02:47:51;10.43;;;7.72;;
38182;SDS011;23991;52.430;10.586;2023-06-24T02:50:18;8.85;;;7.00;;
38182;SDS011;23991;52.430;10.586;2023-06-24T02:52:44;9.20;;;7.55;;
38182;SDS011;23991;52.430;10.586;2023-06-24T02:55:10;8.90;;;7.50;;
38182;SDS011;23991;52.430;10.586;2023-06-24T02:57:37;13.52;;;8.15;;
38182;SDS011;23991;52.430;10.586;2023-06-24T03:00:07;11.23;;;7.72;;
38182;SDS011;23991;52.430;10.586;2023-06-24T03:02:40;9.68;;;8.27;;
38182;SDS011;23991;52.430;10.586;2023-06-24T03:05:13;11.02;;;8.07;;
38182;SDS011;23991;52.430;10.586;2023-06-24T03:07:40;10.35;;;7.78;;
38182;SDS011;23991;52.430;10.586;2023-06-24T03:10:07;13.40;;;7.53;;
38182;SDS011;23991;52.430;10.586;2023-06-24T03:12:33;14.73;;;8.65;;
38182;SDS011;23991;52.430;10.586;2023-06-24T03:14:59;10.10;;;8.13;;
38182;SDS011;23991;52.430;10.586;2023-06-24T03:17:28;11.57;;;8.70;;
38182;SDS011;23991;52.430;10.586;2023-06-24T03:19:56;13.18;;;8.98;;
38182;SDS011;23991;52.430;10.586;2023-06-24T03:22:24;12.60;;;8.60;;
38182;SDS011;23991;52.430;10.586;2023-06-24T03:24:49;9.43;;;7.78;;
38182;SDS011;23991;52.430;10.586;2023-06-24T03:27:16;13.55;;;8.32;;
38182;SDS011;23991;52.430;10.586;2023-06-24T03:29:42;12.00;;;8.80;;
38182;SDS011;23991;52.430;10.586;2023-06-24T03:32:08;13.15;;;8.63;;
38182;SDS011;23991;52.430;10.586;2023-06-24T03:34:33;13.70;;;7.90;;
38182;SDS011;23991;52.430;10.586;2023-06-24T03:36:59;16.05;;;8.43;;
38182;SDS011;23991;52.430;10.586;2023-06-24T03:39:25;11.02;;;8.25;;
38182;SDS011;23991;52.430;10.586;2023-06-24T03:41:51;10.55;;;8.63;;
38182;SDS011;23991;52.430;10.586;2023-06-24T03:44:16;13.18;;;8.88;;
38182;SDS011;23991;52.430;10.586;2023-06-24T03:46:42;11.45;;;9.15;;
38182;SDS011;23991;52.430;10.586;2023-06-24T03:49:07;13.15;;;9.50;;
38182;SDS011;23991;52.430;10.586;2023-06-24T03:51:33;12.77;;;8.85;;
38182;SDS011;23991;52.430;10.586;2023-06-24T03:53:59;12.35;;;8.82;;
38182;SDS011;23991;52.430;10.586;2023-06-24T03:56:24;15.27;;;9.57;;
38182;SDS011;23991;52.430;10.586;2023-06-24T03:58:50;12.30;;;9.38;;
38182;SDS011;23991;52.430;10.586;2023-06-24T04:01:15;12.82;;;9.82;;
38182;SDS011;23991;52.430;10.586;2023-06-24T04:03:44;12.95;;;9.30;;
38182;SDS011;23991;52.430;10.586;2023-06-24T04:06:10;12.57;;;9.00;;
38182;SDS011;23991;52.430;10.586;2023-06-24T04:08:35;15.05;;;9.27;;
38182;SDS011;23991;52.430;10.586;2023-06-24T04:11:04;14.80;;;9.75;;
38182;SDS011;23991;52.430;10.586;2023-06-24T04:13:31;13.27;;;8.60;;
38182;SDS011;23991;52.430;10.586;2023-06-24T04:15:58;15.80;;;9.13;;
38182;SDS011;23991;52.430;10.586;2023-06-24T04:18:23;12.57;;;8.77;;
38182;SDS011;23991;52.430;10.586;2023-06-24T04:20:49;12.65;;;9.27;;
38182;SDS011;23991;52.430;10.586;2023-06-24T04:23:14;13.25;;;9.35;;
38182;SDS011;23991;52.430;10.586;2023-06-24T04:25:40;16.63;;;9.60;;
38182;SDS011;23991;52.430;10.586;2023-06-24T04:28:06;10.65;;;9.32;;
38182;SDS011;23991;52.430;10.586;2023-06-24T04:30:32;12.50;;;9.45;;
38182;SDS011;23991;52.430;10.586;2023-06-24T04:33:00;14.35;;;8.88;;
38182;SDS011;23991;52.430;10.586;2023-06-24T04:35:26;12.07;;;8.63;;
38182;SDS011;23991;52.430;10.586;2023-06-24T04:37:51;16.67;;;9.68;;
38182;SDS011;23991;52.430;10.586;2023-06-24T04:40:17;15.95;;;9.45;;
38182;SDS011;23991;52.430;10.586;2023-06-24T04:42:43;13.07;;;8.63;;
38182;SDS011;23991;52.430;10.586;2023-06-24T04:45:09;14.27;;;9.85;;
38182;SDS011;23991;52.430;10.586;2023-06-24T04:47:35;15.80;;;9.80;;
38182;SDS011;23991;52.430;10.586;2023-06-24T04:50:01;11.00;;;8.13;;
38182;SDS011;23991;52.430;10.586;2023-06-24T04:52:30;17.88;;;9.52;;
38182;SDS011;23991;52.430;10.586;2023-06-24T04:54:55;13.23;;;8.88;;
38182;SDS011;23991;52.430;10.586;2023-06-24T04:57:26;13.13;;;9.57;;
38182;SDS011;23991;52.430;10.586;2023-06-24T04:59:52;14.25;;;9.40;;
38182;SDS011;23991;52.430;10.586;2023-06-24T05:02:18;14.70;;;9.13;;
38182;SDS011;23991;52.430;10.586;2023-06-24T05:04:46;13.57;;;9.02;;
38182;SDS011;23991;52.430;10.586;2023-06-24T05:07:12;13.00;;;9.57;;
38182;SDS011;23991;52.430;10.586;2023-06-24T05:09:37;13.60;;;9.20;;
38182;SDS011;23991;52.430;10.586;2023-06-24T05:12:04;16.23;;;10.25;;
38182;SDS011;23991;52.430;10.586;2023-06-24T05:14:36;12.30;;;9.20;;
38182;SDS011;23991;52.430;10.586;2023-06-24T05:17:05;13.52;;;9.18;;
38182;SDS011;23991;52.430;10.586;2023-06-24T05:19:31;12.23;;;9.63;;
38182;SDS011;23991;52.430;10.586;2023-06-24T05:21:57;13.85;;;8.80;;
38182;SDS011;23991;52.430;10.586;2023-06-24T05:24:22;14.32;;;8.95;;
38182;SDS011;23991;52.430;10.586;2023-06-24T05:26:48;12.23;;;8.32;;
38182;SDS011;23991;52.430;10.586;2023-06-24T05:29:15;15.38;;;9.07;;
38182;SDS011;23991;52.430;10.586;2023-06-24T05:31:41;19.13;;;9.27;;
38182;SDS011;23991;52.430;10.586;2023-06-24T05:34:07;14.10;;;9.32;;
38182;SDS011;23991;52.430;10.586;2023-06-24T05:36:39;12.65;;;8.48;;
38182;SDS011;23991;52.430;10.586;2023-06-24T05:39:04;11.30;;;9.07;;
38182;SDS011;23991;52.430;10.586;2023-06-24T05:41:32;12.20;;;8.63;;
38182;SDS011;23991;52.430;10.586;2023-06-24T05:44:06;12.65;;;9.32;;
38182;SDS011;23991;52.430;10.586;2023-06-24T05:46:33;12.23;;;8.93;;
38182;SDS011;23991;52.430;10.586;2023-06-24T05:48:59;11.32;;;8.80;;
38182;SDS011;23991;52.430;10.586;2023-06-24T05:51:25;13.55;;;9.32;;
38182;SDS011;23991;52.430;10.586;2023-06-24T05:53:50;15.82;;;8.77;;
38182;SDS011;23991;52.430;10.586;2023-06-24T05:56:16;14.10;;;8.43;;
38182;SDS011;23991;52.430;10.586;2023-06-24T05:58:41;10.90;;;9.00;;
38182;SDS011;23991;52.430;10.586;2023-06-24T06:01:09;11.25;;;8.13;;
38182;SDS011;23991;52.430;10.586;2023-06-24T06:03:35;13.73;;;8.60;;
38182;SDS011;23991;52.430;10.586;2023-06-24T06:06:00;11.82;;;8.40;;
38182;SDS011;23991;52.430;10.586;2023-06-24T06:08:26;10.82;;;8.93;;
38182;SDS011;23991;52.430;10.586;2023-06-24T06:10:52;9.98;;;8.23;;
38182;SDS011;23991;52.430;10.586;2023-06-24T06:13:21;13.88;;;8.90;;
38182;SDS011;23991;52.430;10.586;2023-06-24T06:15:46;12.20;;;8.03;;
38182;SDS011;23991;52.430;10.586;2023-06-24T06:18:12;13.07;;;8.00;;
38182;SDS011;23991;52.430;10.586;2023-06-24T06:20:38;14.68;;;9.35;;
38182;SDS011;23991;52.430;10.586;2023-06-24T06:23:03;14.57;;;8.75;;
38182;SDS011;23991;52.430;10.586;2023-06-24T06:25:29;12.07;;;9.15;;
38182;SDS011;23991;52.430;10.586;2023-06-24T06:27:54;13.68;;;8.85;;
38182;SDS011;23991;52.430;10.586;2023-06-24T06:30:20;9.70;;;7.85;;
38182;SDS011;23991;52.430;10.586;2023-06-24T06:32:46;13.95;;;7.93;;
38182;SDS011;23991;52.430;10.586;2023-06-24T06:35:11;10.75;;;8.77;;
38182;SDS011;23991;52.430;10.586;2023-06-24T06:37:37;11.75;;;8.07;;
38182;SDS011;23991;52.430;10.586;2023-06-24T06:40:03;12.70;;;8.02;;
38182;SDS011;23991;52.430;10.586;2023-06-24T06:42:29;12.18;;;8.48;;
38182;SDS011;23991;52.430;10.586;2023-06-24T06:44:55;11.85;;;8.20;;
38182;SDS011;23991;52.430;10.586;2023-06-24T06:47:20;13.38;;;8.73;;
38182;SDS011;23991;52.430;10.586;2023-06-24T06:49:46;13.95;;;9.10;;
38182;SDS011;23991;52.430;10.586;2023-06-24T06:52:11;18.30;;;10.45;;
38182;SDS011;23991;52.430;10.586;2023-06-24T06:54:37;10.20;;;7.72;;
38182;SDS011;23991;52.430;10.586;2023-06-24T06:57:03;9.85;;;7.20;;
38182;SDS011;23991;52.430;10.586;2023-06-24T06:59:29;12.13;;;7.40;;
38182;SDS011;23991;52.430;10.586;2023-06-24T07:01:56;10.18;;;7.60;;
38182;SDS011;23991;52.430;10.586;2023-06-24T07:04:21;9.98;;;7.47;;
38182;SDS011;23991;52.430;10.586;2023-06-24T07:06:47;12.40;;;7.90;;
38182;SDS011;23991;52.430;10.586;2023-06-24T07:09:13;11.00;;;7.70;;
38182;SDS011;23991;52.430;10.586;2023-06-24T07:11:40;10.63;;;7.00;;
38182;SDS011;23991;52.430;10.586;2023-06-24T07:14:08;10.77;;;7.07;;
38182;SDS011;23991;52.430;10.586;2023-06-24T07:16:34;11.40;;;7.63;;
38182;SDS011;23991;52.430;10.586;2023-06-24T07:18:59;10.73;;;6.40;;
38182;SDS011;23991;52.430;10.586;2023-06-24T07:21:25;9.95;;;7.07;;
38182;SDS011;23991;52.430;10.586;2023-06-24T07:23:50;9.35;;;6.43;;
38182;SDS011;23991;52.430;10.586;2023-06-24T07:26:16;8.43;;;6.03;;
38182;SDS011;23991;52.430;10.586;2023-06-24T07:28:42;7.68;;;5.93;;
38182;SDS011;23991;52.430;10.586;2023-06-24T07:31:07;10.13;;;6.55;;
38182;SDS011;23991;52.430;10.586;2023-06-24T07:33:33;10.00;;;6.00;;
38182;SDS011;23991;52.430;10.586;2023-06-24T07:35:59;8.73;;;5.28;;
38182;SDS011;23991;52.430;10.586;2023-06-24T07:38:25;7.05;;;5.43;;
38182;SDS011;23991;52.430;10.586;2023-06-24T07:40:51;8.25;;;5.82;;
38182;SDS011;23991;52.430;10.586;2023-06-24T07:43:16;6.80;;;5.47;;
38182;SDS011;23991;52.430;10.586;2023-06-24T07:45:42;7.22;;;5.85;;
38182;SDS011;23991;52.430;10.586;2023-06-24T07:48:08;8.15;;;5.05;;
38182;SDS011;23991;52.430;10.586;2023-06-24T07:50:34;6.88;;;4.72;;
38182;SDS011;23991;52.430;10.586;2023-06-24T07:53:01;8.25;;;4.38;;
38182;SDS011;23991;52.430;10.586;2023-06-24T07:55:27;7.60;;;4.68;;
38182;SDS011;23991;52.430;10.586;2023-06-24T07:57:53;5.35;;;4.70;;
38182;SDS011;23991;52.430;10.586;2023-06-24T08:00:19;6.43;;;4.63;;
38182;SDS011;23991;52.430;10.586;2023-06-24T08:02:44;5.18;;;3.88;;
38182;SDS011;23991;52.430;10.586;2023-06-24T08:05:13;6.38;;;4.00;;
38182;SDS011;23991;52.430;10.586;2023-06-24T08:07:38;6.38;;;4.13;;
38182;SDS011;23991;52.430;10.586;2023-06-24T08:10:04;6.30;;;4.68;;
38182;SDS011;23991;52.430;10.586;2023-06-24T08:12:30;7.57;;;4.50;;
38182;SDS011;23991;52.430;10.586;2023-06-24T08:14:57;4.97;;;4.10;;
38182;SDS011;23991;52.430;10.586;2023-06-24T08:17:22;7.82;;;4.55;;
38182;SDS011;23991;52.430;10.586;2023-06-24T08:19:48;5.63;;;4.00;;
38182;SDS011;23991;52.430;10.586;2023-06-24T08:22:14;8.52;;;5.20;;
38182;SDS011;23991;52.430;10.586;2023-06-24T08:24:40;9.82;;;4.70;;
38182;SDS011;23991;52.430;10.586;2023-06-24T08:27:06;7.50;;;4.88;;
38182;SDS011;23991;52.430;10.586;2023-06-24T08:29:33;9.57;;;4.55;;
38182;SDS011;23991;52.430;10.586;2023-06-24T08:31:59;6.53;;;4.18;;
38182;SDS011;23991;52.430;10.586;2023-06-24T08:34:24;5.30;;;4.20;;
38182;SDS011;23991;52.430;10.586;2023-06-24T08:36:50;5.93;;;4.25;;
38182;SDS011;23991;52.430;10.586;2023-06-24T08:39:15;5.78;;;4.40;;
38182;SDS011;23991;52.430;10.586;2023-06-24T08:41:41;5.88;;;4.30;;
38182;SDS011;23991;52.430;10.586;2023-06-24T08:44:06;6.85;;;4.80;;
38182;SDS011;23991;52.430;10.586;2023-06-24T08:46:32;8.07;;;4.00;;
38182;SDS011;23991;52.430;10.586;2023-06-24T08:49:08;7.13;;;4.07;;
38182;SDS011;23991;52.430;10.586;2023-06-24T08:51:41;5.95;;;3.97;;
38182;SDS011;23991;52.430;10.586;2023-06-24T08:54:11;7.22;;;4.70;;
38182;SDS011;23991;52.430;10.586;2023-06-24T08:56:39;5.88;;;4.20;;
38182;SDS011;23991;52.430;10.586;2023-06-24T08:59:06;7.82;;;4.30;;
38182;SDS011;23991;52.430;10.586;2023-06-24T09:01:32;5.95;;;3.92;;
38182;SDS011;23991;52.430;10.586;2023-06-24T09:03:57;6.88;;;3.67;;
38182;SDS011;23991;52.430;10.586;2023-06-24T09:06:23;5.35;;;3.38;;
38182;SDS011;23991;52.430;10.586;2023-06-24T09:08:52;5.32;;;3.80;;
38182;SDS011;23991;52.430;10.586;2023-06-24T09:11:25;5.50;;;3.80;;
38182;SDS011;23991;52.430;10.586;2023-06-24T09:13:58;4.60;;;3.75;;
38182;SDS011;23991;52.430;10.586;2023-06-24T09:16:24;7.60;;;4.32;;
38182;SDS011;23991;52.430;10.586;2023-06-24T09:18:51;10.52;;;4.60;;
38182;SDS011;23991;52.430;10.586;2023-06-24T09:21:22;4.82;;;3.35;;
38182;SDS011;23991;52.430;10.586;2023-06-24T09:23:54;5.65;;;3.65;;
38182;SDS011;23991;52.430;10.586;2023-06-24T09:26:24;7.75;;;3.75;;
38182;SDS011;23991;52.430;10.586;2023-06-24T09:28:51;4.45;;;3.50;;
38182;SDS011;23991;52.430;10.586;2023-06-24T09:31:17;5.95;;;3.63;;
38182;SDS011;23991;52.430;10.586;2023-06-24T09:33:43;6.38;;;3.75;;
38182;SDS011;23991;52.430;10.586;2023-06-24T09:36:12;5.75;;;3.92;;
38182;SDS011;23991;52.430;10.586;2023-06-24T09:38:40;5.53;;;3.50;;
38182;SDS011;23991;52.430;10.586;2023-06-24T09:41:09;4.60;;;3.40;;
38182;SDS011;23991;52.430;10.586;2023-06-24T09:43:38;5.00;;;3.23;;
38182;SDS011;23991;52.430;10.586;2023-06-24T09:46:07;7.80;;;3.72;;
38182;SDS011;23991;52.430;10.586;2023-06-24T09:48:35;5.32;;;3.42;;
38182;SDS011;23991;52.430;10.586;2023-06-24T09:51:04;86.57;;;16.10;;
38182;SDS011;23991;52.430;10.586;2023-06-24T09:53:31;6.68;;;4.30;;
38182;SDS011;23991;52.430;10.586;2023-06-24T09:56:03;4.78;;;3.25;;
38182;SDS011;23991;52.430;10.586;2023-06-24T09:58:31;7.32;;;3.60;;
38182;SDS011;23991;52.430;10.586;2023-06-24T10:01:02;6.30;;;3.50;;
38182;SDS011;23991;52.430;10.586;2023-06-24T10:03:33;5.03;;;3.75;;
38182;SDS011;23991;52.430;10.586;2023-06-24T10:06:01;6.13;;;4.07;;
38182;SDS011;23991;52.430;10.586;2023-06-24T10:08:28;7.20;;;3.80;;
38182;SDS011;23991;52.430;10.586;2023-06-24T10:10:55;6.85;;;3.67;;
38182;SDS011;23991;52.430;10.586;2023-06-24T10:13:21;5.85;;;3.35;;
38182;SDS011;23991;52.430;10.586;2023-06-24T10:15:47;7.88;;;3.72;;
38182;SDS011;23991;52.430;10.586;2023-06-24T10:21:05;7.05;;;3.70;;
38182;SDS011;23991;52.430;10.586;2023-06-24T10:26:45;6.95;;;3.70;;
38182;SDS011;23991;52.430;10.586;2023-06-24T10:32:12;6.65;;;3.63;;
38182;SDS011;23991;52.430;10.586;2023-06-24T10:36:54;4.95;;;4.15;;
38182;SDS011;23991;52.430;10.586;2023-06-24T10:47:36;5.85;;;3.47;;
38182;SDS011;23991;52.430;10.586;2023-06-24T10:50:02;5.45;;;3.78;;
38182;SDS011;23991;52.430;10.586;2023-06-24T10:52:28;5.18;;;3.58;;
38182;SDS011;23991;52.430;10.586;2023-06-24T10:54:55;7.38;;;3.70;;
38182;SDS011;23991;52.430;10.586;2023-06-24T10:57:23;6.15;;;3.70;;
38182;SDS011;23991;52.430;10.586;2023-06-24T10:59:50;4.10;;;3.58;;
38182;SDS011;23991;52.430;10.586;2023-06-24T11:02:21;4.43;;;3.45;;
38182;SDS011;23991;52.430;10.586;2023-06-24T11:04:48;5.13;;;3.42;;
38182;SDS011;23991;52.430;10.586;2023-06-24T11:07:22;5.20;;;3.53;;
38182;SDS011;23991;52.430;10.586;2023-06-24T11:12:16;4.88;;;3.17;;
38182;SDS011;23991;52.430;10.586;2023-06-24T11:14:42;4.65;;;3.50;;
38182;SDS011;23991;52.430;10.586;2023-06-24T11:17:08;6.28;;;3.60;;
38182;SDS011;23991;52.430;10.586;2023-06-24T11:19:34;5.07;;;3.78;;
38182;SDS011;23991;52.430;10.586;2023-06-24T11:22:05;7.40;;;3.95;;
38182;SDS011;23991;52.430;10.586;2023-06-24T11:24:32;5.32;;;3.40;;
38182;SDS011;23991;52.430;10.586;2023-06-24T11:26:58;5.30;;;3.30;;
38182;SDS011;23991;52.430;10.586;2023-06-24T11:29:23;5.53;;;3.58;;
38182;SDS011;23991;52.430;10.586;2023-06-24T11:31:50;8.75;;;3.88;;
38182;SDS011;23991;52.430;10.586;2023-06-24T11:34:16;5.30;;;3.25;;
38182;SDS011;23991;52.430;10.586;2023-06-24T11:36:41;4.80;;;3.40;;
38182;SDS011;23991;52.430;10.586;2023-06-24T11:39:07;7.15;;;3.53;;
38182;SDS011;23991;52.430;10.586;2023-06-24T11:41:33;4.25;;;3.30;;
38182;SDS011;23991;52.430;10.586;2023-06-24T11:43:59;5.82;;;3.42;;
38182;SDS011;23991;52.430;10.586;2023-06-24T11:46:25;10.80;;;3.60;;
38182;SDS011;23991;52.430;10.586;2023-06-24T11:48:52;4.43;;;3.20;;
38182;SDS011;23991;52.430;10.586;2023-06-24T11:51:18;6.07;;;3.40;;
38182;SDS011;23991;52.430;10.586;2023-06-24T11:53:45;5.57;;;3.50;;
38182;SDS011;23991;52.430;10.586;2023-06-24T11:56:11;4.28;;;2.78;;
38182;SDS011;23991;52.430;10.586;2023-06-24T11:58:37;5.75;;;3.47;;
38182;SDS011;23991;52.430;10.586;2023-06-24T12:01:03;5.47;;;3.70;;
38182;SDS011;23991;52.430;10.586;2023-06-24T12:03:32;4.65;;;3.35;;
38182;SDS011;23991;52.430;10.586;2023-06-24T12:05:58;5.68;;;3.20;;
38182;SDS011;23991;52.430;10.586;2023-06-24T12:08:24;4.43;;;3.17;;
38182;SDS011;23991;52.430;10.586;2023-06-24T12:10:51;4.15;;;3.17;;
38182;SDS011;23991;52.430;10.586;2023-06-24T12:13:17;4.40;;;3.25;;
38182;SDS011;23991;52.430;10.586;2023-06-24T12:15:43;4.63;;;3.38;;
38182;SDS011;23991;52.430;10.586;2023-06-24T12:18:08;7.72;;;3.20;;
38182;SDS011;23991;52.430;10.586;2023-06-24T12:20:34;3.97;;;3.28;;
38182;SDS011;23991;52.430;10.586;2023-06-24T12:23:01;6.95;;;3.42;;
38182;SDS011;23991;52.430;10.586;2023-06-24T12:25:31;4.45;;;3.00;;
38182;SDS011;23991;52.430;10.586;2023-06-24T12:27:56;7.07;;;3.03;;
38182;SDS011;23991;52.430;10.586;2023-06-24T12:30:24;3.88;;;2.80;;
38182;SDS011;23991;52.430;10.586;2023-06-24T12:32:50;3.95;;;3.20;;
38182;SDS011;23991;52.430;10.586;2023-06-24T12:35:16;4.97;;;3.25;;
38182;SDS011;23991;52.430;10.586;2023-06-24T12:37:45;5.50;;;3.40;;
38182;SDS011;23991;52.430;10.586;2023-06-24T12:40:12;4.80;;;3.50;;
38182;SDS011;23991;52.430;10.586;2023-06-24T12:42:38;5.07;;;3.20;;
38182;SDS011;23991;52.430;10.586;2023-06-24T12:45:04;4.03;;;3.10;;
38182;SDS011;23991;52.430;10.586;2023-06-24T12:47:30;5.00;;;3.47;;
38182;SDS011;23991;52.430;10.586;2023-06-24T12:49:55;4.55;;;3.05;;
38182;SDS011;23991;52.430;10.586;2023-06-24T12:52:21;4.75;;;2.90;;
38182;SDS011;23991;52.430;10.586;2023-06-24T12:54:46;6.30;;;3.30;;
38182;SDS011;23991;52.430;10.586;2023-06-24T12:57:12;6.15;;;3.47;;
38182;SDS011;23991;52.430;10.586;2023-06-24T12:59:39;4.53;;;3.47;;
38182;SDS011;23991;52.430;10.586;2023-06-24T13:02:04;6.00;;;3.40;;
38182;SDS011;23991;52.430;10.586;2023-06-24T13:04:30;5.20;;;3.42;;
38182;SDS011;23991;52.430;10.586;2023-06-24T13:06:56;3.80;;;3.20;;
38182;SDS011;23991;52.430;10.586;2023-06-24T13:09:22;4.18;;;3.50;;
38182;SDS011;23991;52.430;10.586;2023-06-24T13:11:48;4.03;;;3.28;;
38182;SDS011;23991;52.430;10.586;2023-06-24T13:14:14;4.88;;;3.45;;
38182;SDS011;23991;52.430;10.586;2023-06-24T13:16:40;4.15;;;3.28;;
38182;SDS011;23991;52.430;10.586;2023-06-24T13:19:06;5.63;;;3.25;;
38182;SDS011;23991;52.430;10.586;2023-06-24T13:21:32;5.00;;;3.55;;
38182;SDS011;23991;52.430;10.586;2023-06-24T13:23:57;4.65;;;3.40;;
38182;SDS011;23991;52.430;10.586;2023-06-24T13:26:23;4.93;;;3.30;;
38182;SDS011;23991;52.430;10.586;2023-06-24T13:28:49;4.25;;;3.40;;
38182;SDS011;23991;52.430;10.586;2023-06-24T13:31:15;4.22;;;3.38;;
38182;SDS011;23991;52.430;10.586;2023-06-24T13:33:41;4.78;;;3.13;;
38182;SDS011;23991;52.430;10.586;2023-06-24T13:36:07;5.30;;;3.22;;
38182;SDS011;23991;52.430;10.586;2023-06-24T13:38:38;6.45;;;3.53;;
38182;SDS011;23991;52.430;10.586;2023-06-24T13:41:04;4.35;;;3.42;;
38182;SDS011;23991;52.430;10.586;2023-06-24T13:43:29;4.38;;;3.20;;
38182;SDS011;23991;52.430;10.586;2023-06-24T13:45:55;6.38;;;3.42;;
38182;SDS011;23991;52.430;10.586;2023-06-24T13:48:20;5.65;;;3.75;;
38182;SDS011;23991;52.430;10.586;2023-06-24T13:50:46;3.58;;;3.28;;
38182;SDS011;23991;52.430;10.586;2023-06-24T13:53:11;4.78;;;3.30;;
38182;SDS011;23991;52.430;10.586;2023-06-24T13:55:37;4.53;;;3.10;;
38182;SDS011;23991;52.430;10.586;2023-06-24T13:58:03;4.05;;;3.10;;
38182;SDS011;23991;52.430;10.586;2023-06-24T14:00:29;6.13;;;3.08;;
38182;SDS011;23991;52.430;10.586;2023-06-24T14:02:54;4.10;;;3.13;;
38182;SDS011;23991;52.430;10.586;2023-06-24T14:05:20;4.82;;;3.45;;
38182;SDS011;23991;52.430;10.586;2023-06-24T14:07:46;4.95;;;3.30;;
38182;SDS011;23991;52.430;10.586;2023-06-24T14:10:11;6.45;;;3.33;;
38182;SDS011;23991;52.430;10.586;2023-06-24T14:12:37;4.15;;;3.17;;
38182;SDS011;23991;52.430;10.586;2023-06-24T14:15:03;3.92;;;3.20;;
38182;SDS011;23991;52.430;10.586;2023-06-24T14:17:29;3.92;;;3.40;;
38182;SDS011;23991;52.430;10.586;2023-06-24T14:19:55;4.65;;;3.35;;
38182;SDS011;23991;52.430;10.586;2023-06-24T14:22:21;4.15;;;3.45;;
38182;SDS011;23991;52.430;10.586;2023-06-24T14:24:47;4.55;;;3.28;;
38182;SDS011;23991;52.430;10.586;2023-06-24T14:27:13;4.80;;;3.22;;
38182;SDS011;23991;52.430;10.586;2023-06-24T14:29:39;3.85;;;3.00;;
38182;SDS011;23991;52.430;10.586;2023-06-24T14:32:04;6.03;;;3.30;;
38182;SDS011;23991;52.430;10.586;2023-06-24T14:34:31;3.60;;;3.28;;
38182;SDS011;23991;52.430;10.586;2023-06-24T14:36:57;4.00;;;3.10;;
38182;SDS011;23991;52.430;10.586;2023-06-24T14:39:23;4.78;;;3.00;;
38182;SDS011;23991;52.430;10.586;2023-06-24T14:41:48;5.75;;;3.38;;
38182;SDS011;23991;52.430;10.586;2023-06-24T14:44:14;5.47;;;3.20;;
38182;SDS011;23991;52.430;10.586;2023-06-24T14:46:40;5.25;;;3.42;;
38182;SDS011;23991;52.430;10.586;2023-06-24T14:49:05;3.88;;;3.38;;
38182;SDS011;23991;52.430;10.586;2023-06-24T14:51:31;5.03;;;3.25;;
38182;SDS011;23991;52.430;10.586;2023-06-24T14:53:56;5.00;;;3.47;;
38182;SDS011;23991;52.430;10.586;2023-06-24T14:56:22;4.32;;;3.33;;
38182;SDS011;23991;52.430;10.586;2023-06-24T14:58:50;5.75;;;3.88;;
38182;SDS011;23991;52.430;10.586;2023-06-24T15:01:16;4.43;;;3.20;;